sensor_id;sensor_type;location;lat;lon;timestamp;P1;durP1;ratioP1;P2;durP2;ratioP2
21148;SDS011;10732;51.472;6.466;2023-04-01T00:01:09;7.57;;;2.50;;
21148;SDS011;10732;51.472;6.466;2023-04-01T00:03:38;5.60;;;2.45;;
21148;SDS011;10732;51.472;6.466;2023-04-01T00:06:04;6.65;;;2.30;;
21148;SDS011;10732;51.472;6.466;2023-04-01T00:08:30;5.63;;;2.33;;
21148;SDS011;10732;51.472;6.466;2023-04-01T00:10:56;6.30;;;2.10;;
21148;SDS011;10732;51.472;6.466;2023-04-01T00:13:23;6.85;;;2.40;;
21148;SDS011;10732;51.472;6.466;2023-04-01T00:15:50;8.48;;;2.22;;
21148;SDS011;10732;51.472;6.466;2023-04-01T00:18:16;7.50;;;2.22;;
21148;SDS011;10732;51.472;6.466;2023-04-01T00:20:45;6.15;;;2.03;;
21148;SDS011;10732;51.472;6.466;2023-04-01T00:23:12;4.50;;;1.80;;
21148;SDS011;10732;51.472;6.466;2023-04-01T00:25:38;4.75;;;1.63;;
21148;SDS011;10732;51.472;6.466;2023-04-01T00:28:04;4.80;;;1.80;;
21148;SDS011;10732;51.472;6.466;2023-04-01T00:30:30;3.38;;;1.67;;
21148;SDS011;10732;51.472;6.466;2023-04-01T00:32:55;4.35;;;1.70;;
21148;SDS011;10732;51.472;6.466;2023-04-01T00:35:21;4.22;;;1.58;;
21148;SDS011;10732;51.472;6.466;2023-04-01T00:37:47;5.43;;;2.13;;
21148;SDS011;10732;51.472;6.466;2023-04-01T00:40:30;5.50;;;1.95;;
21148;SDS011;10732;51.472;6.466;2023-04-01T00:42:58;4.20;;;2.30;;
21148;SDS011;10732;51.472;6.466;2023-04-01T00:47:55;4.82;;;2.22;;
21148;SDS011;10732;51.472;6.466;2023-04-01T00:50:24;3.78;;;2.20;;
21148;SDS011;10732;51.472;6.466;2023-04-01T00:52:51;4.35;;;2.42;;
21148;SDS011;10732;51.472;6.466;2023-04-01T00:55:18;4.07;;;2.50;;
21148;SDS011;10732;51.472;6.466;2023-04-01T00:57:46;3.75;;;2.10;;
21148;SDS011;10732;51.472;6.466;2023-04-01T01:00:14;3.10;;;1.98;;
21148;SDS011;10732;51.472;6.466;2023-04-01T01:02:42;4.70;;;1.88;;
21148;SDS011;10732;51.472;6.466;2023-04-01T01:05:14;3.28;;;1.95;;
21148;SDS011;10732;51.472;6.466;2023-04-01T01:08:00;4.72;;;1.92;;
21148;SDS011;10732;51.472;6.466;2023-04-01T01:10:33;5.10;;;2.10;;
21148;SDS011;10732;51.472;6.466;2023-04-01T01:15:59;3.60;;;1.85;;
21148;SDS011;10732;51.472;6.466;2023-04-01T01:18:35;5.28;;;1.80;;
21148;SDS011;10732;51.472;6.466;2023-04-01T01:24:13;4.10;;;1.80;;
21148;SDS011;10732;51.472;6.466;2023-04-01T01:26:53;3.60;;;1.73;;
21148;SDS011;10732;51.472;6.466;2023-04-01T01:37:56;2.28;;;1.40;;
21148;SDS011;10732;51.472;6.466;2023-04-01T01:40:41;2.35;;;1.35;;
21148;SDS011;10732;51.472;6.466;2023-04-01T01:43:11;3.78;;;1.30;;
21148;SDS011;10732;51.472;6.466;2023-04-01T01:45:43;2.65;;;1.50;;
21148;SDS011;10732;51.472;6.466;2023-04-01T01:48:11;2.72;;;1.15;;
21148;SDS011;10732;51.472;6.466;2023-04-01T01:50:37;3.15;;;1.10;;
21148;SDS011;10732;51.472;6.466;2023-04-01T01:53:06;3.53;;;0.95;;
21148;SDS011;10732;51.472;6.466;2023-04-01T01:55:35;3.35;;;1.10;;
21148;SDS011;10732;51.472;6.466;2023-04-01T01:58:18;2.47;;;1.00;;
21148;SDS011;10732;51.472;6.466;2023-04-01T02:00:50;0.90;;;0.73;;
21148;SDS011;10732;51.472;6.466;2023-04-01T02:03:24;2.25;;;1.08;;
21148;SDS011;10732;51.472;6.466;2023-04-01T02:05:52;3.97;;;0.98;;
21148;SDS011;10732;51.472;6.466;2023-04-01T02:08:22;3.15;;;1.10;;
21148;SDS011;10732;51.472;6.466;2023-04-01T02:10:57;1.40;;;0.82;;
21148;SDS011;10732;51.472;6.466;2023-04-01T02:13:31;4.93;;;1.08;;
21148;SDS011;10732;51.472;6.466;2023-04-01T02:16:04;1.27;;;0.98;;
21148;SDS011;10732;51.472;6.466;2023-04-01T02:18:37;1.90;;;0.90;;
21148;SDS011;10732;51.472;6.466;2023-04-01T02:21:04;3.45;;;0.80;;
21148;SDS011;10732;51.472;6.466;2023-04-01T02:23:33;3.17;;;0.85;;
21148;SDS011;10732;51.472;6.466;2023-04-01T02:26:00;2.97;;;0.80;;
21148;SDS011;10732;51.472;6.466;2023-04-01T02:28:27;0.93;;;0.60;;
21148;SDS011;10732;51.472;6.466;2023-04-01T02:30:54;1.27;;;0.60;;
21148;SDS011;10732;51.472;6.466;2023-04-01T02:33:22;1.52;;;0.65;;
21148;SDS011;10732;51.472;6.466;2023-04-01T02:35:48;2.15;;;0.73;;
21148;SDS011;10732;51.472;6.466;2023-04-01T02:38:14;3.42;;;1.00;;
21148;SDS011;10732;51.472;6.466;2023-04-01T02:40:50;1.08;;;0.73;;
21148;SDS011;10732;51.472;6.466;2023-04-01T02:43:21;2.95;;;0.80;;
21148;SDS011;10732;51.472;6.466;2023-04-01T02:45:47;1.23;;;0.70;;
21148;SDS011;10732;51.472;6.466;2023-04-01T02:48:12;2.67;;;0.88;;
21148;SDS011;10732;51.472;6.466;2023-04-01T02:50:39;1.83;;;0.75;;
21148;SDS011;10732;51.472;6.466;2023-04-01T02:53:04;1.13;;;0.70;;
21148;SDS011;10732;51.472;6.466;2023-04-01T02:55:31;1.08;;;0.88;;
21148;SDS011;10732;51.472;6.466;2023-04-01T02:57:57;1.73;;;1.05;;
21148;SDS011;10732;51.472;6.466;2023-04-01T03:00:23;1.55;;;1.00;;
21148;SDS011;10732;51.472;6.466;2023-04-01T03:02:48;1.80;;;1.00;;
21148;SDS011;10732;51.472;6.466;2023-04-01T03:05:14;2.33;;;1.23;;
21148;SDS011;10732;51.472;6.466;2023-04-01T03:07:40;1.98;;;1.45;;
21148;SDS011;10732;51.472;6.466;2023-04-01T03:10:06;1.90;;;1.30;;
21148;SDS011;10732;51.472;6.466;2023-04-01T03:12:32;1.92;;;1.30;;
21148;SDS011;10732;51.472;6.466;2023-04-01T03:14:57;2.42;;;1.55;;
21148;SDS011;10732;51.472;6.466;2023-04-01T03:17:23;3.28;;;1.75;;
21148;SDS011;10732;51.472;6.466;2023-04-01T03:19:48;2.85;;;1.90;;
21148;SDS011;10732;51.472;6.466;2023-04-01T03:22:14;3.60;;;2.10;;
21148;SDS011;10732;51.472;6.466;2023-04-01T03:24:40;2.67;;;1.92;;
21148;SDS011;10732;51.472;6.466;2023-04-01T03:27:05;4.10;;;2.08;;
21148;SDS011;10732;51.472;6.466;2023-04-01T03:29:31;4.30;;;2.47;;
21148;SDS011;10732;51.472;6.466;2023-04-01T03:31:56;3.15;;;2.25;;
21148;SDS011;10732;51.472;6.466;2023-04-01T03:34:24;2.78;;;2.45;;
21148;SDS011;10732;51.472;6.466;2023-04-01T03:36:51;3.25;;;2.28;;
21148;SDS011;10732;51.472;6.466;2023-04-01T03:39:17;4.35;;;1.98;;
21148;SDS011;10732;51.472;6.466;2023-04-01T03:41:43;2.53;;;2.33;;
21148;SDS011;10732;51.472;6.466;2023-04-01T03:44:10;4.07;;;2.33;;
21148;SDS011;10732;51.472;6.466;2023-04-01T03:46:35;2.30;;;1.90;;
21148;SDS011;10732;51.472;6.466;2023-04-01T03:49:01;3.45;;;2.15;;
21148;SDS011;10732;51.472;6.466;2023-04-01T03:51:27;3.47;;;2.25;;
21148;SDS011;10732;51.472;6.466;2023-04-01T03:53:52;2.88;;;2.00;;
21148;SDS011;10732;51.472;6.466;2023-04-01T03:56:18;2.50;;;2.30;;
21148;SDS011;10732;51.472;6.466;2023-04-01T03:58:43;3.20;;;2.05;;
21148;SDS011;10732;51.472;6.466;2023-04-01T04:01:13;2.55;;;2.20;;
21148;SDS011;10732;51.472;6.466;2023-04-01T04:03:39;2.10;;;1.85;;
21148;SDS011;10732;51.472;6.466;2023-04-01T04:06:05;3.08;;;2.05;;
21148;SDS011;10732;51.472;6.466;2023-04-01T04:08:34;2.95;;;2.25;;
21148;SDS011;10732;51.472;6.466;2023-04-01T04:11:00;4.63;;;2.55;;
21148;SDS011;10732;51.472;6.466;2023-04-01T04:13:25;2.72;;;2.42;;
21148;SDS011;10732;51.472;6.466;2023-04-01T04:15:51;2.97;;;2.67;;
21148;SDS011;10732;51.472;6.466;2023-04-01T04:18:16;3.40;;;2.75;;
21148;SDS011;10732;51.472;6.466;2023-04-01T04:20:45;3.80;;;2.95;;
21148;SDS011;10732;51.472;6.466;2023-04-01T04:23:15;4.82;;;3.28;;
21148;SDS011;10732;51.472;6.466;2023-04-01T04:25:52;3.67;;;3.17;;
21148;SDS011;10732;51.472;6.466;2023-04-01T04:28:26;4.35;;;3.30;;
21148;SDS011;10732;51.472;6.466;2023-04-01T04:30:53;4.70;;;3.83;;
21148;SDS011;10732;51.472;6.466;2023-04-01T04:33:18;4.60;;;3.97;;
21148;SDS011;10732;51.472;6.466;2023-04-01T04:35:45;4.40;;;4.00;;
21148;SDS011;10732;51.472;6.466;2023-04-01T04:38:10;4.85;;;4.35;;
21148;SDS011;10732;51.472;6.466;2023-04-01T04:40:36;5.15;;;4.50;;
21148;SDS011;10732;51.472;6.466;2023-04-01T04:43:03;4.55;;;4.03;;
21148;SDS011;10732;51.472;6.466;2023-04-01T04:45:29;5.18;;;4.50;;
21148;SDS011;10732;51.472;6.466;2023-04-01T04:47:55;5.07;;;4.57;;
21148;SDS011;10732;51.472;6.466;2023-04-01T04:50:20;5.60;;;4.25;;
21148;SDS011;10732;51.472;6.466;2023-04-01T04:52:46;4.35;;;3.95;;
21148;SDS011;10732;51.472;6.466;2023-04-01T04:55:11;5.85;;;4.55;;
21148;SDS011;10732;51.472;6.466;2023-04-01T04:57:37;5.18;;;4.20;;
21148;SDS011;10732;51.472;6.466;2023-04-01T05:00:03;5.60;;;4.53;;
21148;SDS011;10732;51.472;6.466;2023-04-01T05:02:29;5.45;;;4.88;;
21148;SDS011;10732;51.472;6.466;2023-04-01T05:04:54;7.05;;;5.15;;
21148;SDS011;10732;51.472;6.466;2023-04-01T05:07:20;5.47;;;4.95;;
21148;SDS011;10732;51.472;6.466;2023-04-01T05:09:45;5.55;;;4.85;;
21148;SDS011;10732;51.472;6.466;2023-04-01T05:12:11;8.13;;;5.10;;
21148;SDS011;10732;51.472;6.466;2023-04-01T05:14:38;5.57;;;5.07;;
21148;SDS011;10732;51.472;6.466;2023-04-01T05:17:03;12.23;;;5.50;;
21148;SDS011;10732;51.472;6.466;2023-04-01T05:19:29;7.85;;;5.20;;
21148;SDS011;10732;51.472;6.466;2023-04-01T05:21:55;5.53;;;4.75;;
21148;SDS011;10732;51.472;6.466;2023-04-01T05:24:20;5.60;;;5.10;;
21148;SDS011;10732;51.472;6.466;2023-04-01T05:26:46;6.00;;;5.32;;
21148;SDS011;10732;51.472;6.466;2023-04-01T05:29:11;6.40;;;5.80;;
21148;SDS011;10732;51.472;6.466;2023-04-01T05:31:37;6.45;;;5.85;;
21148;SDS011;10732;51.472;6.466;2023-04-01T05:34:02;6.57;;;5.97;;
21148;SDS011;10732;51.472;6.466;2023-04-01T05:36:28;7.05;;;6.35;;
21148;SDS011;10732;51.472;6.466;2023-04-01T05:38:56;6.85;;;6.20;;
21148;SDS011;10732;51.472;6.466;2023-04-01T05:41:22;7.55;;;6.70;;
21148;SDS011;10732;51.472;6.466;2023-04-01T05:43:47;7.38;;;6.72;;
21148;SDS011;10732;51.472;6.466;2023-04-01T05:46:13;7.60;;;6.90;;
21148;SDS011;10732;51.472;6.466;2023-04-01T05:48:38;8.07;;;7.28;;
21148;SDS011;10732;51.472;6.466;2023-04-01T05:51:04;7.28;;;6.57;;
21148;SDS011;10732;51.472;6.466;2023-04-01T05:53:30;7.45;;;6.75;;
21148;SDS011;10732;51.472;6.466;2023-04-01T05:55:56;7.43;;;6.57;;
21148;SDS011;10732;51.472;6.466;2023-04-01T05:58:21;10.60;;;7.18;;
21148;SDS011;10732;51.472;6.466;2023-04-01T06:00:47;7.32;;;6.63;;
21148;SDS011;10732;51.472;6.466;2023-04-01T06:03:12;7.65;;;6.93;;
21148;SDS011;10732;51.472;6.466;2023-04-01T06:05:39;8.40;;;6.93;;
21148;SDS011;10732;51.472;6.466;2023-04-01T06:08:10;7.75;;;6.95;;
21148;SDS011;10732;51.472;6.466;2023-04-01T06:10:43;8.20;;;7.40;;
21148;SDS011;10732;51.472;6.466;2023-04-01T06:13:47;8.07;;;7.10;;
21148;SDS011;10732;51.472;6.466;2023-04-01T06:16:39;10.82;;;7.93;;
21148;SDS011;10732;51.472;6.466;2023-04-01T06:19:27;8.65;;;7.70;;
21148;SDS011;10732;51.472;6.466;2023-04-01T06:44:08;8.65;;;7.82;;
21148;SDS011;10732;51.472;6.466;2023-04-01T06:46:45;9.27;;;8.38;;
21148;SDS011;10732;51.472;6.466;2023-04-01T06:52:19;10.00;;;8.35;;
21148;SDS011;10732;51.472;6.466;2023-04-01T06:55:21;8.80;;;7.90;;
21148;SDS011;10732;51.472;6.466;2023-04-01T06:57:53;7.90;;;7.10;;
21148;SDS011;10732;51.472;6.466;2023-04-01T07:00:36;8.55;;;6.47;;
21148;SDS011;10732;51.472;6.466;2023-04-01T07:03:26;7.47;;;6.72;;
21148;SDS011;10732;51.472;6.466;2023-04-01T07:05:58;6.93;;;6.20;;
21148;SDS011;10732;51.472;6.466;2023-04-01T07:08:28;7.20;;;6.60;;
21148;SDS011;10732;51.472;6.466;2023-04-01T07:11:00;7.43;;;6.55;;
21148;SDS011;10732;51.472;6.466;2023-04-01T07:13:39;6.88;;;6.18;;
21148;SDS011;10732;51.472;6.466;2023-04-01T07:16:20;7.13;;;6.15;;
21148;SDS011;10732;51.472;6.466;2023-04-01T07:18:52;6.88;;;5.47;;
21148;SDS011;10732;51.472;6.466;2023-04-01T07:23:54;7.97;;;5.72;;
21148;SDS011;10732;51.472;6.466;2023-04-01T07:26:25;6.50;;;5.85;;
21148;SDS011;10732;51.472;6.466;2023-04-01T07:28:52;7.20;;;5.72;;
21148;SDS011;10732;51.472;6.466;2023-04-01T07:34:26;6.80;;;5.93;;
21148;SDS011;10732;51.472;6.466;2023-04-01T07:39:42;8.73;;;6.65;;
21148;SDS011;10732;51.472;6.466;2023-04-01T07:48:00;6.78;;;5.50;;
21148;SDS011;10732;51.472;6.466;2023-04-01T07:50:42;6.85;;;5.53;;
21148;SDS011;10732;51.472;6.466;2023-04-01T07:53:26;5.55;;;4.95;;
21148;SDS011;10732;51.472;6.466;2023-04-01T08:04:36;5.38;;;4.68;;
21148;SDS011;10732;51.472;6.466;2023-04-01T08:07:20;6.45;;;5.15;;
21148;SDS011;10732;51.472;6.466;2023-04-01T08:09:53;5.93;;;4.85;;
21148;SDS011;10732;51.472;6.466;2023-04-01T08:12:52;6.20;;;5.28;;
21148;SDS011;10732;51.472;6.466;2023-04-01T08:18:48;5.18;;;4.68;;
21148;SDS011;10732;51.472;6.466;2023-04-01T08:21:41;5.13;;;4.63;;
21148;SDS011;10732;51.472;6.466;2023-04-01T08:24:17;5.38;;;4.60;;
21148;SDS011;10732;51.472;6.466;2023-04-01T08:26:55;5.95;;;5.10;;
21148;SDS011;10732;51.472;6.466;2023-04-01T08:29:33;4.97;;;4.47;;
21148;SDS011;10732;51.472;6.466;2023-04-01T08:32:09;6.43;;;5.00;;
21148;SDS011;10732;51.472;6.466;2023-04-01T08:34:42;5.75;;;4.97;;
21148;SDS011;10732;51.472;6.466;2023-04-01T08:37:19;7.88;;;5.85;;
21148;SDS011;10732;51.472;6.466;2023-04-01T08:39:58;7.05;;;5.53;;
21148;SDS011;10732;51.472;6.466;2023-04-01T08:42:45;8.95;;;6.00;;
21148;SDS011;10732;51.472;6.466;2023-04-01T08:51:22;8.38;;;6.38;;
21148;SDS011;10732;51.472;6.466;2023-04-01T08:53:59;8.43;;;7.53;;
21148;SDS011;10732;51.472;6.466;2023-04-01T09:13:05;8.02;;;6.90;;
21148;SDS011;10732;51.472;6.466;2023-04-01T09:35:06;9.25;;;8.07;;
21148;SDS011;10732;51.472;6.466;2023-04-01T09:38:15;10.40;;;8.77;;
21148;SDS011;10732;51.472;6.466;2023-04-01T09:46:18;9.82;;;8.35;;
21148;SDS011;10732;51.472;6.466;2023-04-01T09:57:30;10.52;;;9.07;;
21148;SDS011;10732;51.472;6.466;2023-04-01T10:00:20;10.90;;;9.13;;
21148;SDS011;10732;51.472;6.466;2023-04-01T10:06:12;10.13;;;8.73;;
21148;SDS011;10732;51.472;6.466;2023-04-01T10:11:55;11.05;;;9.15;;
21148;SDS011;10732;51.472;6.466;2023-04-01T10:17:50;11.60;;;9.85;;
21148;SDS011;10732;51.472;6.466;2023-04-01T10:23:47;11.68;;;9.75;;
21148;SDS011;10732;51.472;6.466;2023-04-01T10:26:34;12.57;;;9.93;;
21148;SDS011;10732;51.472;6.466;2023-04-01T11:22:14;12.70;;;9.45;;
21148;SDS011;10732;51.472;6.466;2023-04-01T11:30:22;10.70;;;7.88;;
21148;SDS011;10732;51.472;6.466;2023-04-01T11:33:16;8.80;;;7.57;;
21148;SDS011;10732;51.472;6.466;2023-04-01T11:35:56;10.85;;;8.05;;
21148;SDS011;10732;51.472;6.466;2023-04-01T11:47:00;8.07;;;7.35;;
21148;SDS011;10732;51.472;6.466;2023-04-01T11:52:47;8.35;;;7.45;;
21148;SDS011;10732;51.472;6.466;2023-04-01T11:59:35;9.30;;;7.15;;
21148;SDS011;10732;51.472;6.466;2023-04-01T12:04:27;7.65;;;6.95;;
21148;SDS011;10732;51.472;6.466;2023-04-01T12:07:10;7.72;;;6.85;;
21148;SDS011;10732;51.472;6.466;2023-04-01T12:12:48;8.70;;;6.78;;
21148;SDS011;10732;51.472;6.466;2023-04-01T12:18:11;7.88;;;6.95;;
21148;SDS011;10732;51.472;6.466;2023-04-01T12:20:55;8.57;;;7.68;;
21148;SDS011;10732;51.472;6.466;2023-04-01T12:32:13;9.30;;;8.15;;
21148;SDS011;10732;51.472;6.466;2023-04-01T12:37:41;10.77;;;8.88;;
21148;SDS011;10732;51.472;6.466;2023-04-01T12:40:45;10.15;;;8.32;;
21148;SDS011;10732;51.472;6.466;2023-04-01T12:49:32;11.27;;;8.20;;
21148;SDS011;10732;51.472;6.466;2023-04-01T12:52:10;8.48;;;7.60;;
21148;SDS011;10732;51.472;6.466;2023-04-01T12:57:49;8.55;;;7.65;;
21148;SDS011;10732;51.472;6.466;2023-04-01T13:00:39;10.32;;;8.23;;
21148;SDS011;10732;51.472;6.466;2023-04-01T13:03:45;9.07;;;8.18;;
21148;SDS011;10732;51.472;6.466;2023-04-01T13:06:29;11.15;;;7.65;;
21148;SDS011;10732;51.472;6.466;2023-04-01T13:09:12;9.35;;;8.30;;
21148;SDS011;10732;51.472;6.466;2023-04-01T13:22:49;9.95;;;8.63;;
21148;SDS011;10732;51.472;6.466;2023-04-01T13:25:30;9.50;;;8.57;;
21148;SDS011;10732;51.472;6.466;2023-04-01T13:28:20;10.63;;;9.23;;
21148;SDS011;10732;51.472;6.466;2023-04-01T13:34:00;10.05;;;8.98;;
21148;SDS011;10732;51.472;6.466;2023-04-01T13:39:35;9.88;;;8.73;;
21148;SDS011;10732;51.472;6.466;2023-04-01T13:42:21;9.90;;;8.25;;
21148;SDS011;10732;51.472;6.466;2023-04-01T13:44:56;9.02;;;8.13;;
21148;SDS011;10732;51.472;6.466;2023-04-01T13:53:42;8.77;;;7.32;;
21148;SDS011;10732;51.472;6.466;2023-04-01T14:01:42;8.60;;;7.70;;
21148;SDS011;10732;51.472;6.466;2023-04-01T14:13:18;7.65;;;6.85;;
21148;SDS011;10732;51.472;6.466;2023-04-01T14:15:48;6.88;;;6.28;;
21148;SDS011;10732;51.472;6.466;2023-04-01T14:24:27;7.60;;;6.80;;
21148;SDS011;10732;51.472;6.466;2023-04-01T14:28:18;9.52;;;6.57;;
21148;SDS011;10732;51.472;6.466;2023-04-01T14:30:26;10.52;;;6.60;;
21148;SDS011;10732;51.472;6.466;2023-04-01T14:33:16;7.47;;;6.75;;
21148;SDS011;10732;51.472;6.466;2023-04-01T14:35:58;7.07;;;6.38;;
21148;SDS011;10732;51.472;6.466;2023-04-01T14:38:35;6.82;;;6.22;;
21148;SDS011;10732;51.472;6.466;2023-04-01T14:50:02;7.55;;;6.63;;
21148;SDS011;10732;51.472;6.466;2023-04-01T14:52:35;7.93;;;7.13;;
21148;SDS011;10732;51.472;6.466;2023-04-01T15:03:22;7.40;;;6.43;;
21148;SDS011;10732;51.472;6.466;2023-04-01T15:11:56;7.43;;;5.85;;
21148;SDS011;10732;51.472;6.466;2023-04-01T15:14:31;7.15;;;5.28;;
21148;SDS011;10732;51.472;6.466;2023-04-01T15:17:45;6.32;;;5.60;;
21148;SDS011;10732;51.472;6.466;2023-04-01T15:23:14;6.60;;;6.00;;
21148;SDS011;10732;51.472;6.466;2023-04-01T15:29:11;6.53;;;5.93;;
21148;SDS011;10732;51.472;6.466;2023-04-01T15:37:54;6.75;;;6.15;;
21148;SDS011;10732;51.472;6.466;2023-04-01T15:46:17;6.40;;;5.85;;
21148;SDS011;10732;51.472;6.466;2023-04-01T16:09:27;6.07;;;5.57;;
21148;SDS011;10732;51.472;6.466;2023-04-01T16:11:56;6.75;;;6.05;;
21148;SDS011;10732;51.472;6.466;2023-04-01T16:20:35;7.68;;;6.80;;
21148;SDS011;10732;51.472;6.466;2023-04-01T16:23:36;7.38;;;6.68;;
21148;SDS011;10732;51.472;6.466;2023-04-01T16:26:05;7.10;;;6.50;;
21148;SDS011;10732;51.472;6.466;2023-04-01T16:28:33;10.07;;;7.30;;
21148;SDS011;10732;51.472;6.466;2023-04-01T16:31:30;8.20;;;7.50;;
21148;SDS011;10732;51.472;6.466;2023-04-01T16:36:54;8.70;;;7.80;;
21148;SDS011;10732;51.472;6.466;2023-04-01T16:39:44;9.73;;;8.27;;
21148;SDS011;10732;51.472;6.466;2023-04-01T16:42:22;9.48;;;8.35;;
21148;SDS011;10732;51.472;6.466;2023-04-01T16:47:19;9.73;;;8.63;;
21148;SDS011;10732;51.472;6.466;2023-04-01T16:49:58;10.10;;;9.10;;
21148;SDS011;10732;51.472;6.466;2023-04-01T16:55:15;9.63;;;8.73;;
21148;SDS011;10732;51.472;6.466;2023-04-01T16:57:52;9.90;;;8.95;;
21148;SDS011;10732;51.472;6.466;2023-04-01T17:00:23;9.80;;;8.80;;
21148;SDS011;10732;51.472;6.466;2023-04-01T17:08:53;10.40;;;9.35;;
21148;SDS011;10732;51.472;6.466;2023-04-01T17:11:21;10.85;;;9.75;;
21148;SDS011;10732;51.472;6.466;2023-04-01T17:16:44;11.60;;;10.50;;
21148;SDS011;10732;51.472;6.466;2023-04-01T17:22:16;10.23;;;9.23;;
21148;SDS011;10732;51.472;6.466;2023-04-01T17:25:06;11.75;;;10.25;;
21148;SDS011;10732;51.472;6.466;2023-04-01T17:30:24;11.63;;;10.23;;
21148;SDS011;10732;51.472;6.466;2023-04-01T17:33:30;11.73;;;10.48;;
21148;SDS011;10732;51.472;6.466;2023-04-01T17:39:11;13.60;;;12.13;;
21148;SDS011;10732;51.472;6.466;2023-04-01T17:42:09;12.40;;;11.05;;
21148;SDS011;10732;51.472;6.466;2023-04-01T17:47:20;13.95;;;12.55;;
21148;SDS011;10732;51.472;6.466;2023-04-01T17:52:52;12.80;;;11.38;;
21148;SDS011;10732;51.472;6.466;2023-04-01T18:00:54;13.60;;;11.98;;
21148;SDS011;10732;51.472;6.466;2023-04-01T18:18:37;17.75;;;13.40;;
21148;SDS011;10732;51.472;6.466;2023-04-01T18:27:01;14.77;;;13.32;;
21148;SDS011;10732;51.472;6.466;2023-04-01T18:34:54;15.90;;;14.20;;
21148;SDS011;10732;51.472;6.466;2023-04-01T18:37:45;14.80;;;13.25;;
21148;SDS011;10732;51.472;6.466;2023-04-01T18:40:32;17.23;;;12.20;;
21148;SDS011;10732;51.472;6.466;2023-04-01T18:46:37;12.27;;;10.20;;
21148;SDS011;10732;51.472;6.466;2023-04-01T18:51:56;8.30;;;7.50;;
21148;SDS011;10732;51.472;6.466;2023-04-01T18:55:14;7.85;;;7.05;;
21148;SDS011;10732;51.472;6.466;2023-04-01T18:57:54;7.45;;;5.82;;
21148;SDS011;10732;51.472;6.466;2023-04-01T19:03:23;4.95;;;4.55;;
21148;SDS011;10732;51.472;6.466;2023-04-01T19:06:00;5.55;;;5.05;;
21148;SDS011;10732;51.472;6.466;2023-04-01T19:08:39;4.90;;;4.50;;
21148;SDS011;10732;51.472;6.466;2023-04-01T19:11:07;4.60;;;4.20;;
21148;SDS011;10732;51.472;6.466;2023-04-01T19:17:19;4.60;;;4.20;;
21148;SDS011;10732;51.472;6.466;2023-04-01T19:20:46;4.22;;;3.92;;
21148;SDS011;10732;51.472;6.466;2023-04-01T19:23:16;6.80;;;4.20;;
21148;SDS011;10732;51.472;6.466;2023-04-01T19:26:00;3.95;;;3.58;;
21148;SDS011;10732;51.472;6.466;2023-04-01T19:28:39;3.80;;;3.50;;
21148;SDS011;10732;51.472;6.466;2023-04-01T19:31:23;3.40;;;3.20;;
21148;SDS011;10732;51.472;6.466;2023-04-01T19:39:37;4.28;;;3.50;;
21148;SDS011;10732;51.472;6.466;2023-04-01T19:45:21;3.65;;;3.35;;
21148;SDS011;10732;51.472;6.466;2023-04-01T19:48:13;4.47;;;4.07;;
21148;SDS011;10732;51.472;6.466;2023-04-01T19:50:43;4.88;;;4.47;;
21148;SDS011;10732;51.472;6.466;2023-04-01T19:53:42;4.40;;;3.78;;
21148;SDS011;10732;51.472;6.466;2023-04-01T19:56:17;4.13;;;3.83;;
21148;SDS011;10732;51.472;6.466;2023-04-01T20:04:10;4.70;;;4.30;;
21148;SDS011;10732;51.472;6.466;2023-04-01T20:07:00;4.72;;;3.70;;
21148;SDS011;10732;51.472;6.466;2023-04-01T20:13:05;5.32;;;4.82;;
21148;SDS011;10732;51.472;6.466;2023-04-01T20:15:55;4.88;;;4.47;;
21148;SDS011;10732;51.472;6.466;2023-04-01T20:19:06;4.32;;;3.92;;
21148;SDS011;10732;51.472;6.466;2023-04-01T20:26:33;4.10;;;3.80;;
21148;SDS011;10732;51.472;6.466;2023-04-01T20:31:46;3.20;;;3.00;;
21148;SDS011;10732;51.472;6.466;2023-04-01T20:37:00;3.70;;;3.40;;
21148;SDS011;10732;51.472;6.466;2023-04-01T20:39:52;3.58;;;3.28;;
21148;SDS011;10732;51.472;6.466;2023-04-01T20:53:35;3.67;;;3.38;;
21148;SDS011;10732;51.472;6.466;2023-04-01T21:07:05;4.25;;;3.85;;
21148;SDS011;10732;51.472;6.466;2023-04-01T21:12:53;4.55;;;4.15;;
21148;SDS011;10732;51.472;6.466;2023-04-01T21:18:29;4.78;;;4.38;;
21148;SDS011;10732;51.472;6.466;2023-04-01T21:23:58;4.53;;;4.00;;
21148;SDS011;10732;51.472;6.466;2023-04-01T21:29:14;3.50;;;3.25;;
21148;SDS011;10732;51.472;6.466;2023-04-01T21:37:49;4.32;;;3.72;;
21148;SDS011;10732;51.472;6.466;2023-04-01T22:02:38;4.68;;;4.28;;
21148;SDS011;10732;51.472;6.466;2023-04-01T22:05:20;5.35;;;4.90;;
21148;SDS011;10732;51.472;6.466;2023-04-01T22:08:03;6.10;;;5.60;;
21148;SDS011;10732;51.472;6.466;2023-04-01T22:10:38;6.00;;;5.50;;
21148;SDS011;10732;51.472;6.466;2023-04-01T22:20:59;6.50;;;5.90;;
21148;SDS011;10732;51.472;6.466;2023-04-01T22:23:46;6.03;;;5.50;;
21148;SDS011;10732;51.472;6.466;2023-04-01T22:29:03;7.03;;;6.32;;
21148;SDS011;10732;51.472;6.466;2023-04-01T22:31:36;7.13;;;6.53;;
21148;SDS011;10732;51.472;6.466;2023-04-01T22:34:12;7.80;;;7.10;;
21148;SDS011;10732;51.472;6.466;2023-04-01T22:39:39;7.90;;;7.10;;
21148;SDS011;10732;51.472;6.466;2023-04-01T22:50:43;7.80;;;6.90;;
21148;SDS011;10732;51.472;6.466;2023-04-01T22:53:18;6.78;;;6.20;;
21148;SDS011;10732;51.472;6.466;2023-04-01T22:56:11;6.25;;;5.75;;
21148;SDS011;10732;51.472;6.466;2023-04-01T22:58:50;7.43;;;6.07;;
21148;SDS011;10732;51.472;6.466;2023-04-01T23:01:29;6.97;;;6.28;;
21148;SDS011;10732;51.472;6.466;2023-04-01T23:03:59;7.47;;;6.72;;
21148;SDS011;10732;51.472;6.466;2023-04-01T23:06:33;7.85;;;7.15;;
21148;SDS011;10732;51.472;6.466;2023-04-01T23:09:07;7.53;;;6.82;;
21148;SDS011;10732;51.472;6.466;2023-04-01T23:11:48;7.35;;;6.65;;
21148;SDS011;10732;51.472;6.466;2023-04-01T23:27:40;5.50;;;4.88;;
21148;SDS011;10732;51.472;6.466;2023-04-01T23:35:54;4.57;;;4.22;;
21148;SDS011;10732;51.472;6.466;2023-04-01T23:38:38;4.75;;;4.35;;
21148;SDS011;10732;51.472;6.466;2023-04-01T23:41:25;4.60;;;4.20;;
21148;SDS011;10732;51.472;6.466;2023-04-01T23:44:01;5.47;;;4.97;;
21148;SDS011;10732;51.472;6.466;2023-04-01T23:46:34;6.30;;;5.70;;
21148;SDS011;10732;51.472;6.466;2023-04-01T23:49:01;7.22;;;5.53;;
21148;SDS011;10732;51.472;6.466;2023-04-01T23:51:29;6.18;;;5.57;;
21148;SDS011;10732;51.472;6.466;2023-04-01T23:56:48;6.15;;;5.20;;
21148;SDS011;10732;51.472;6.466;2023-04-01T23:59:18;5.22;;;4.72;;
